Aviation Digital Data Service (ADDS)

Output produced by METARs form (0234 UTC 14 December 2018)
found at http://aviationweather.gov/metar/data/
 
KFME 140221Z AUTO 00000KT 10SM BKN060 BKN075 03/01 A3041 RMK AO1
KBWI 140154Z 08004KT 10SM SCT060 BKN070 06/02 A3038 RMK AO2 SLP289 T00610017
KBWI 132344Z 1400/1506 08006KT P6SM BKN050 OVC150 
     FM140200 07004KT P6SM BKN050 
     FM141800 VRB03KT P6SM -RA OVC070 
     FM142300 03005KT 5SM -RA OVC030
       
KESN 140152Z 00000KT 10SM SCT070 08/03 A3043
KCGE 140220Z AUTO 00000KT 10SM BKN055 OVC065 06/03 A3040 RMK A01
KSBY 140154Z 00000KT 10SM SCT060 OVC080 07/04 A3039 RMK AO2 SLP294 T00720044
KSBY 132320Z 1400/1424 12003KT P6SM BKN070 
     TEMPO 1407/1411 2SM BR 
     FM141500 12003KT P6SM BKN060 
     FM142100 15003KT 5SM -RA BR OVC035
       
KOXB 140153Z AUTO 04003KT 10SM BKN065 OVC085 08/06 A3039 RMK AO2 SLP290 T00830061
KFDK 140225Z AUTO 00000KT 7SM OVC060 02/01 A3042 RMK AO2
KHGR 140153Z 31003KT 6SM HZ OVC055 03/M01 A3037 RMK AO2 SLP300 T00331011